Latest Weather Observations for Bedout Island

IDW60801

Issued at 1:32 pm WST Saturday 28 May 2016 (issued every 30 minutes, with the page automatically refreshed every 10 minutes)

About weather observations | Map of weather stations | Latest weather observations for WA | Other Formats
Station Details ID: 004100 Name: BEDOUT ISLAND Lat: -19.59 Lon: 119.10 Height: 8.6 m
Data from the previous 72 hours. | See also: Recent months at Bedout Island
Date/Time
WST
Temp
°C
App
Temp
°C
Dew
Point
Rel
Hum
%
Delta-T
°C
Wind Press
QNH
hPa
Press
MSL
hPa
Rain
since 9 am
mm
Dir
 
Spd
km/h
Gust
km/h
Spd
kts
Gust
kts
28/01:30pm 28.0 31.4 22.7 73 3.6 W 9 13 5 7 1012.2 - -
28/01:00pm 28.7 32.2 22.9 71 4.0 W 9 11 5 6 1012.5 - -
28/12:30pm 28.2 31.7 22.9 73 3.6 W 9 11 5 6 1013.0 - -
28/12:00pm 27.6 30.5 22.5 74 3.4 W 11 15 6 8 1013.5 1013.4 -
28/11:30am 28.0 31.0 23.4 76 3.2 W 13 15 7 8 1013.9 - -
28/11:00am 27.7 30.6 23.1 76 3.1 W 13 17 7 9 1014.4 - -
28/10:30am 27.7 30.3 23.3 77 3.0 W 15 19 8 10 1014.9 - -
28/10:00am 27.2 29.4 23.2 79 2.7 W 17 20 9 11 1015.3 - -
28/09:30am 27.5 29.4 23.5 79 2.7 W 19 20 10 11 1015.5 - -
28/09:00am 27.1 29.6 23.8 82 2.3 W 17 20 9 11 1015.6 1015.5 -
28/08:30am 26.7 29.6 24.4 87 1.6 W 17 20 9 11 1015.4 - -
28/07:30am 24.9 28.3 24.6 98 0.2 W 15 19 8 10 1015.1 - -
28/07:00am 24.2 26.8 24.0 99 0.1 W 17 20 9 11 1014.9 - -
28/06:30am 24.1 25.5 23.6 97 0.3 W 22 24 12 13 1014.7 - -
28/06:00am 24.3 25.9 23.3 94 0.7 W 20 24 11 13 1014.6 1014.5 -
28/05:30am 24.9 26.5 22.8 88 1.4 W 19 22 10 12 1014.2 - -
28/05:00am 25.7 26.9 21.4 77 2.8 W 17 19 9 10 1013.8 - -
28/04:30am 25.9 26.8 21.6 77 2.9 W 19 20 10 11 1013.7 - -
28/04:00am 25.8 26.9 21.9 79 2.6 W 19 20 10 11 1013.9 - -
28/03:30am 26.0 27.0 22.1 79 2.6 W 20 22 11 12 1013.9 - -
28/03:00am 26.0 26.7 22.3 80 2.5 W 22 24 12 13 1014.1 1014.0 -
28/02:30am 25.9 26.8 22.6 82 2.2 W 22 24 12 13 1014.2 - -
28/02:00am 25.9 26.8 22.6 82 2.2 W 22 26 12 14 1014.4 - -
28/01:30am 25.8 26.2 22.5 82 2.2 W 24 26 13 14 1014.5 - -
28/01:00am 25.8 26.6 22.5 82 2.2 W 22 24 12 13 1014.7 - -
28/12:30am 25.7 26.5 22.4 82 2.2 W 22 26 12 14 1014.9 - -
28/12:00am 25.6 26.8 22.5 83 2.1 W 20 24 11 13 1014.9 1014.8 -
 
Date/Time
WST
Temp
°C
App
Temp
°C
Dew
Point
Rel
Hum
%
Delta-T
°C
Wind Press
QNH
hPa
Press
MSL
hPa
Rain
since 9 am
mm
Dir
 
Spd
km/h
Gust
km/h
Spd
kts
Gust
kts
27/11:30pm 25.6 26.7 22.3 82 2.2 W 20 22 11 12 1015.0 - -
27/11:00pm 25.5 26.2 22.2 82 2.2 W 22 26 12 14 1015.3 - -
27/10:30pm 25.0 25.8 21.7 82 2.2 W 20 22 11 12 1015.4 - -
27/10:00pm 24.8 25.9 21.3 81 2.3 W 17 19 9 10 1015.4 - -
27/09:30pm 24.6 25.5 20.9 80 2.4 W 17 17 9 9 1015.4 - -
27/09:00pm 24.8 26.1 20.9 79 2.6 W 15 17 8 9 1015.2 1015.1 -
27/08:30pm 24.9 26.0 20.4 76 2.9 W 15 17 8 9 1015.1 - -
27/08:00pm 25.3 26.8 20.5 75 3.1 W 13 17 7 9 1015.0 - -
27/07:30pm 25.2 26.9 20.2 74 3.3 W 11 13 6 7 1014.8 - -
27/07:00pm 25.5 26.9 19.6 70 3.8 W 11 13 6 7 1014.5 - -
27/06:30pm 25.6 26.6 19.5 69 3.9 W 13 15 7 8 1014.2 - -
27/06:00pm 25.8 27.0 19.0 66 4.4 W 11 13 6 7 1013.9 1013.8 -
27/05:30pm 26.2 27.0 19.1 65 4.6 W 13 15 7 8 1013.6 - -
27/05:00pm 27.1 28.0 19.2 62 5.1 W 13 15 7 8 1013.4 - -
27/04:30pm 28.0 29.2 19.8 61 5.3 W 13 15 7 8 1013.2 - -
27/04:00pm 28.5 29.4 20.0 60 5.6 W 15 17 8 9 1013.1 - -
27/03:30pm 28.6 30.0 20.3 60 5.5 W 13 17 7 9 1013.1 - -
27/03:00pm 28.6 29.9 20.1 60 5.6 W 13 15 7 8 1013.2 1013.1 -
27/02:30pm 28.6 30.8 21.1 64 5.0 W 11 13 6 7 1013.4 - -
27/02:00pm 28.9 31.3 20.9 62 5.3 W 9 13 5 7 1013.5 - -
27/01:30pm 28.5 31.4 21.0 64 5.0 W 7 9 4 5 1013.9 - -
27/01:00pm 28.4 31.5 21.4 66 4.7 W 7 9 4 5 1014.4 - -
27/12:30pm 28.5 31.4 21.8 67 4.5 W 9 11 5 6 1014.8 - -
27/12:00pm 28.8 31.3 21.8 66 4.7 W 11 15 6 8 1015.3 1015.2 -
27/11:30am 28.9 30.8 21.4 64 5.0 W 13 17 7 9 1015.9 - -
27/11:00am 28.9 32.0 21.4 64 5.0 W 7 11 4 6 1016.1 - -
27/10:30am 29.0 32.4 22.0 66 4.7 W 7 11 4 6 1016.2 - -
27/10:00am 28.7 31.4 22.2 68 4.4 W 11 15 6 8 1016.5 - -
27/09:00am 27.6 30.8 23.0 76 3.1 W 11 13 6 7 1016.4 1016.3 -
27/08:30am 27.0 30.8 23.5 81 2.4 W 9 11 5 6 1016.3 - -
27/08:00am 26.6 31.0 24.4 88 1.5 W 9 11 5 6 1016.0 - -
27/07:30am 25.6 29.9 24.9 96 0.5 W 11 15 6 8 1015.7 - -
27/07:00am 24.8 28.2 24.6 99 0.1 W 15 17 8 9 1015.4 - -
27/06:30am 24.5 27.2 24.2 98 0.2 W 17 19 9 10 1015.1 - -
27/06:00am 24.8 26.9 24.1 96 0.5 W 20 22 11 12 1014.8 1014.7 -
27/05:30am 25.3 27.2 23.7 91 1.1 W 20 26 11 14 1014.5 - -
27/05:00am 25.1 27.3 23.2 89 1.3 W 17 19 9 10 1014.1 - -
27/04:30am 25.2 27.5 22.7 86 1.7 W 15 19 8 10 1013.9 - -
27/04:00am 25.1 27.8 22.2 84 1.9 W 11 15 6 8 1013.8 - -
27/03:30am 25.4 27.5 22.5 84 2.0 W 15 17 8 9 1013.9 - -
27/03:00am 25.4 27.2 21.9 81 2.3 W 15 17 8 9 1013.8 1013.7 -
27/02:30am 25.5 26.7 21.4 78 2.7 W 17 19 9 10 1014.0 - -
27/02:00am 25.5 26.8 21.6 79 2.6 W 17 19 9 10 1014.2 - -
27/01:30am 25.4 27.0 21.5 79 2.6 W 15 17 8 9 1014.5 - -
27/01:00am 25.4 27.0 21.5 79 2.6 W 15 17 8 9 1014.5 - -
27/12:30am 25.4 27.1 21.7 80 2.5 W 15 19 8 10 1014.7 - -
27/12:00am 25.4 27.0 21.5 79 2.6 W 15 19 8 10 1014.8 1014.7 -
 
Date/Time
WST
Temp
°C
App
Temp
°C
Dew
Point
Rel
Hum
%
Delta-T
°C
Wind Press
QNH
hPa
Press
MSL
hPa
Rain
since 9 am
mm
Dir
 
Spd
km/h
Gust
km/h
Spd
kts
Gust
kts
26/11:30pm 25.4 27.2 21.9 81 2.3 W 15 17 8 9 1014.8 - -
26/11:00pm 25.3 26.7 21.8 81 2.3 W 17 19 9 10 1015.1 - -
26/10:30pm 25.1 26.0 21.6 81 2.3 W 19 20 10 11 1015.1 - -
26/10:00pm 24.9 26.4 22.0 84 1.9 W 17 20 9 11 1015.0 - -
26/09:30pm 24.9 26.4 22.0 84 1.9 W 17 19 9 10 1014.9 - -
26/09:00pm 24.7 26.5 21.8 84 1.9 W 15 17 8 9 1014.9 1014.8 -
26/08:30pm 24.6 25.8 21.5 83 2.1 W 17 19 9 10 1014.8 - -
26/08:00pm 25.1 26.0 21.6 81 2.3 W 19 20 10 11 1014.8 - -
26/07:30pm 25.2 26.2 21.7 81 2.3 W 19 20 10 11 1014.6 - -
26/07:00pm 25.1 26.5 21.8 82 2.2 W 17 20 9 11 1014.2 - -
26/06:30pm 25.1 26.4 21.6 81 2.3 W 17 19 9 10 1013.9 - -
26/06:00pm 25.4 26.3 21.5 79 2.6 W 19 20 10 11 1013.6 1013.5 -
26/05:30pm 25.9 26.7 21.3 76 3.0 W 19 20 10 11 1013.4 - -
26/05:00pm 26.6 27.4 21.4 73 3.5 W 19 22 10 12 1013.2 - -
26/04:30pm 27.1 27.8 21.2 70 3.9 W 19 22 10 12 1012.9 - -
26/04:00pm 27.8 29.1 22.3 72 3.7 W 19 20 10 11 1013.0 - -
26/03:30pm 28.0 29.0 21.8 69 4.2 W 19 20 10 11 1013.3 - -
26/03:00pm 28.1 29.7 22.1 70 4.0 W 17 20 9 11 1013.4 1013.3 -
26/02:30pm 28.1 29.7 22.1 70 4.0 W 17 20 9 11 1013.4 - -
26/02:00pm 28.5 30.3 22.5 70 4.1 W 17 20 9 11 1013.6 - -
26/01:30pm 28.2 30.1 22.0 69 4.2 W 15 19 8 10 1013.8 - -
26/01:00pm 28.4 30.5 22.4 70 4.1 W 15 17 8 9 1014.1 - -
26/12:30pm 28.3 31.0 22.8 72 3.7 W 13 17 7 9 1014.3 - -
26/12:00pm 28.3 30.2 22.1 69 4.2 W 15 19 8 10 1014.8 1014.7 -
26/11:30am 28.5 30.2 23.0 72 3.8 W 19 20 10 11 1015.3 - -
26/11:00am 29.2 30.6 21.9 64 4.9 W 17 20 9 11 1015.6 - -
26/10:30am 28.6 29.5 21.6 66 4.7 W 19 22 10 12 1015.9 - -
26/10:00am 27.4 28.5 21.2 69 4.1 W 17 20 9 11 1015.9 - -
26/09:30am 28.1 28.9 21.4 67 4.5 W 19 22 10 12 1015.9 - -
26/09:00am 27.7 28.6 22.0 71 3.8 W 20 26 11 14 1015.7 1015.6 -
26/08:30am 26.9 26.9 21.6 72 3.5 W 24 28 13 15 1015.4 - -
26/08:00am 27.0 28.0 22.2 75 3.2 W 20 26 11 14 1015.1 - -
26/07:30am 25.9 26.1 21.3 76 3.0 W 22 24 12 13 1014.7 - -
26/07:00am 25.3 25.9 21.4 79 2.6 W 20 28 11 15 1014.4 - -
26/06:30am 25.2 25.0 21.3 79 2.6 W 24 30 13 16 1014.1 - -
26/06:00am 25.2 25.1 21.5 80 2.5 W 24 28 13 15 1013.7 1013.6 -
26/05:30am 25.2 25.6 21.7 81 2.3 W 22 28 12 15 1013.6 - -
26/05:00am 25.2 25.1 21.5 80 2.5 W 24 28 13 15 1013.5 - -
26/04:30am 25.2 25.6 21.7 81 2.3 W 22 26 12 14 1013.4 - -
26/04:00am 25.2 25.2 21.7 81 2.3 W 24 32 13 17 1013.3 - -
26/03:30am 25.3 25.6 22.2 83 2.1 WNW 24 28 13 15 1013.2 - -
26/03:00am 25.1 25.4 22.2 84 1.9 WNW 24 30 13 16 1013.0 1012.9 -
26/02:30am 25.0 25.3 22.3 85 1.8 WNW 24 30 13 16 1013.3 - -
26/02:00am 25.1 25.5 22.4 85 1.8 ENE 24 28 13 15 1013.4 - -
26/01:30am 25.0 25.8 22.5 86 1.7 ENE 22 28 12 15 1013.6 - -
26/01:00am 25.0 25.8 22.5 86 1.7 ENE 22 28 12 15 1013.6 - -
26/12:30am 25.0 25.4 22.5 86 1.7 ENE 24 28 13 15 1013.7 - -
26/12:00am 25.0 25.9 22.7 87 1.5 ENE 22 26 12 14 1013.7 1013.6 -
 
Date/Time
WST
Temp
°C
App
Temp
°C
Dew
Point
Rel
Hum
%
Delta-T
°C
Wind Press
QNH
hPa
Press
MSL
hPa
Rain
since 9 am
mm
Dir
 
Spd
km/h
Gust
km/h
Spd
kts
Gust
kts
25/10:30pm 24.8 26.1 22.3 86 1.7 ENE 19 24 10 13 1014.0 - -
25/10:00pm 24.7 26.3 22.2 86 1.7 ENE 17 20 9 11 1014.1 - -
25/09:30pm 24.4 26.3 22.1 87 1.5 ENE 15 19 8 10 1014.1 - -
25/08:30pm 24.4 26.5 21.7 85 1.8 ENE 13 17 7 9 1014.2 - -
25/08:00pm 24.5 26.3 21.8 85 1.8 ENE 15 17 8 9 1014.0 - -
25/07:30pm 24.5 26.3 21.8 85 1.8 ENE 15 17 8 9 1013.8 - -
25/05:00pm 26.5 29.2 22.1 77 3.0 ENE 11 15 6 8 1012.5 - -
25/04:30pm 26.9 29.2 22.1 75 3.2 ENE 13 15 7 8 1012.3 - -
25/04:00pm 27.2 29.8 21.9 73 3.6 ENE 11 17 6 9 1012.1 - -
25/03:30pm 27.6 30.3 22.1 72 3.7 ENE 11 15 6 8 1012.0 - -
25/03:00pm 27.5 30.0 22.4 73 3.4 ENE 13 15 7 8 1011.9 1011.8 -
25/02:30pm 27.7 30.6 22.4 73 3.6 ENE 11 17 6 9 1012.0 - -
25/02:00pm 28.0 30.7 22.2 70 3.9 ENE 11 13 6 7 1012.0 - -

Other Formats:

Comma delimited format used in spreadsheet applications
http://www.bom.gov.au/fwo/IDW60801/IDW60801.94310.axf

JavaScript Object Notation format (JSON) in row-major order
http://www.bom.gov.au/fwo/IDW60801/IDW60801.94310.json